Time,TemperatureF,DewpointF,PressureIn,WindDirection,WindDirectionDegrees,WindSpeedMPH,WindSpeedGustMPH,Humidity,HourlyPrecipIn,Conditions,Clouds,dailyrainin,SolarRadiationWatts/m^2,SoftwareType,DateUTC
2013-03-06 00:01:00,19.0,2.0,-100.00,SSE,153,6.0,13.0,47,0.00,,,0.01,0.000000,,2013-03-06 07:01:00,
2013-03-06 00:11:00,19.0,2.0,-100.00,SSE,153,6.0,13.0,47,0.00,,,0.01,0.000000,,2013-03-06 07:11:00,
2013-03-06 00:22:00,19.0,2.0,-100.00,SSE,153,6.0,13.0,47,0.00,,,0.01,0.000000,,2013-03-06 07:22:00,
2013-03-06 00:32:00,19.0,2.0,-100.00,SSE,153,6.0,13.0,47,0.00,,,0.01,0.000000,,2013-03-06 07:32:00,
2013-03-06 00:52:00,18.0,6.0,-100.00,SSE,164,4.0,10.0,58,0.00,,,0.01,0.000000,,2013-03-06 07:52:00,
2013-03-06 01:01:00,18.0,6.0,-100.00,SSE,164,4.0,10.0,58,0.00,,,0.01,0.000000,,2013-03-06 08:01:00,
2013-03-06 01:11:00,18.0,6.0,-100.00,SSE,164,4.0,10.0,58,0.00,,,0.01,0.000000,,2013-03-06 08:11:00,
2013-03-06 01:21:00,18.0,6.0,-100.00,SSE,164,4.0,10.0,58,0.00,,,0.01,0.000000,,2013-03-06 08:21:00,
2013-03-06 01:32:00,18.0,6.0,-100.00,SSE,164,4.0,10.0,58,0.00,,,0.01,0.000000,,2013-03-06 08:32:00,
2013-03-06 01:52:00,18.0,7.0,-100.00,South,169,3.0,11.0,62,0.00,,,0.01,0.000000,,2013-03-06 08:52:00,
2013-03-06 02:01:00,18.0,7.0,-100.00,South,169,3.0,11.0,62,0.00,,,0.01,0.000000,,2013-03-06 09:01:00,
2013-03-06 02:12:00,18.0,7.0,-100.00,South,169,3.0,11.0,62,0.00,,,0.01,0.000000,,2013-03-06 09:12:00,
2013-03-06 02:21:00,18.0,7.0,-100.00,South,169,3.0,11.0,62,0.00,,,0.01,0.000000,,2013-03-06 09:21:00,
2013-03-06 02:31:00,18.0,7.0,-100.00,South,169,3.0,11.0,62,0.00,,,0.01,0.000000,,2013-03-06 09:31:00,
2013-03-06 03:01:00,16.0,7.0,-100.00,East,87,0.0,4.0,67,0.00,,,0.01,0.000000,,2013-03-06 10:01:00,
2013-03-06 03:11:00,16.0,7.0,-100.00,East,87,0.0,4.0,67,0.00,,,0.01,0.000000,,2013-03-06 10:11:00,
2013-03-06 03:22:00,16.0,7.0,-100.00,East,87,0.0,4.0,67,0.00,,,0.01,0.000000,,2013-03-06 10:22:00,
2013-03-06 03:32:00,16.0,7.0,-100.00,East,87,0.0,4.0,67,0.00,,,0.01,0.000000,,2013-03-06 10:32:00,
2013-03-06 03:52:00,12.0,6.0,-100.00,NNE,20,2.0,4.0,77,0.00,,,0.01,0.000000,,2013-03-06 10:52:00,
2013-03-06 04:02:00,12.0,6.0,-100.00,NNE,20,2.0,4.0,77,0.00,,,0.01,0.000000,,2013-03-06 11:02:00,
2013-03-06 04:11:00,12.0,6.0,-100.00,NNE,20,2.0,4.0,77,0.00,,,0.01,0.000000,,2013-03-06 11:11:00,
2013-03-06 04:22:00,12.0,6.0,-100.00,NNE,20,2.0,4.0,77,0.00,,,0.01,0.000000,,2013-03-06 11:22:00,
2013-03-06 04:32:00,12.0,6.0,-100.00,NNE,20,2.0,4.0,77,0.00,,,0.01,0.000000,,2013-03-06 11:32:00,
2013-03-06 04:52:00,10.0,4.0,-100.00,NNE,22,2.0,4.0,77,0.00,,,0.01,0.000000,,2013-03-06 11:52:00,
2013-03-06 05:02:00,10.0,4.0,-100.00,NNE,22,2.0,4.0,77,0.00,,,0.01,0.000000,,2013-03-06 12:02:00,
2013-03-06 05:11:00,10.0,4.0,-100.00,NNE,22,2.0,4.0,77,0.00,,,0.01,0.000000,,2013-03-06 12:11:00,
2013-03-06 05:21:00,10.0,4.0,-100.00,NNE,22,2.0,4.0,77,0.00,,,0.01,0.000000,,2013-03-06 12:21:00,
2013-03-06 05:32:00,10.0,4.0,-100.00,NNE,22,2.0,4.0,77,0.00,,,0.01,0.000000,,2013-03-06 12:32:00,
2013-03-06 05:53:00,11.0,3.0,-100.00,NNE,26,1.0,4.0,71,0.00,,,0.01,0.000000,,2013-03-06 12:53:00,
2013-03-06 06:02:00,11.0,3.0,-100.00,NNE,26,1.0,4.0,71,0.00,,,0.01,0.000000,,2013-03-06 13:02:00,
2013-03-06 06:12:00,11.0,3.0,-100.00,NNE,26,1.0,4.0,71,0.00,,,0.01,0.000000,,2013-03-06 13:12:00,
2013-03-06 06:22:00,11.0,3.0,-100.00,NNE,26,1.0,4.0,71,0.00,,,0.01,0.000000,,2013-03-06 13:22:00,
2013-03-06 06:32:00,11.0,3.0,-100.00,NNE,26,1.0,4.0,71,0.00,,,0.01,0.000000,,2013-03-06 13:32:00,
2013-03-06 06:52:00,12.0,3.0,-100.00,NNE,21,2.0,4.0,65,0.00,,,0.01,2.000000,,2013-03-06 13:52:00,
2013-03-06 07:01:00,12.0,3.0,-100.00,NNE,21,2.0,4.0,65,0.00,,,0.01,2.000000,,2013-03-06 14:01:00,
2013-03-06 07:11:00,12.0,3.0,-100.00,NNE,21,2.0,4.0,65,0.00,,,0.01,2.000000,,2013-03-06 14:11:00,
2013-03-06 07:22:00,12.0,3.0,-100.00,NNE,21,2.0,4.0,65,0.00,,,0.01,2.000000,,2013-03-06 14:22:00,
2013-03-06 07:32:00,12.0,3.0,-100.00,NNE,21,2.0,4.0,65,0.00,,,0.01,2.000000,,2013-03-06 14:32:00,
2013-03-06 08:02:00,18.0,3.0,-100.00,NNE,20,2.0,4.0,52,0.00,,,0.01,54.000000,,2013-03-06 15:02:00,
2013-03-06 08:11:00,18.0,3.0,-100.00,NNE,20,2.0,4.0,52,0.00,,,0.01,54.000000,,2013-03-06 15:11:00,
2013-03-06 08:21:00,18.0,3.0,-100.00,NNE,20,2.0,4.0,52,0.00,,,0.01,54.000000,,2013-03-06 15:21:00,
2013-03-06 08:32:00,18.0,3.0,-100.00,NNE,20,2.0,4.0,52,0.00,,,0.01,54.000000,,2013-03-06 15:32:00,
2013-03-06 08:52:00,36.0,2.0,-100.00,SSE,154,2.0,4.0,23,0.00,,,0.01,307.000000,,2013-03-06 15:52:00,
2013-03-06 09:02:00,36.0,2.0,-100.00,SSE,154,2.0,4.0,23,0.00,,,0.01,307.000000,,2013-03-06 16:02:00,
2013-03-06 09:11:00,36.0,2.0,-100.00,SSE,154,2.0,4.0,23,0.00,,,0.01,307.000000,,2013-03-06 16:11:00,
2013-03-06 09:21:00,36.0,2.0,-100.00,SSE,154,2.0,4.0,23,0.00,,,0.01,307.000000,,2013-03-06 16:21:00,
2013-03-06 09:32:00,36.0,2.0,-100.00,SSE,154,2.0,4.0,23,0.00,,,0.01,307.000000,,2013-03-06 16:32:00,
2013-03-06 10:01:00,40.0,4.0,-100.00,South,185,4.0,7.0,22,0.00,,,0.00,511.000000,,2013-03-06 17:01:00,
2013-03-06 10:11:00,40.0,4.0,-100.00,South,185,4.0,7.0,22,0.00,,,0.00,511.000000,,2013-03-06 17:11:00,
2013-03-06 10:22:00,40.0,4.0,-100.00,South,185,4.0,7.0,22,0.00,,,0.00,511.000000,,2013-03-06 17:22:00,
2013-03-06 10:32:00,40.0,4.0,-100.00,South,185,4.0,7.0,22,0.00,,,0.00,511.000000,,2013-03-06 17:32:00,
2013-03-06 11:02:00,41.0,6.0,-100.00,SSW,205,5.0,8.0,23,0.00,,,0.00,655.000000,,2013-03-06 18:02:00,
2013-03-06 11:28:00,41.0,6.0,-100.00,SSW,205,5.0,8.0,23,0.00,,,0.00,655.000000,,2013-03-06 18:28:00,
2013-03-06 11:53:00,44.0,10.0,-100.00,South,177,5.0,9.0,25,0.00,,,0.00,749.000000,,2013-03-06 18:53:00,
2013-03-06 12:02:00,44.0,10.0,-100.00,South,177,5.0,9.0,25,0.00,,,0.00,749.000000,,2013-03-06 19:02:00,
2013-03-06 12:11:00,44.0,10.0,-100.00,South,177,5.0,9.0,25,0.00,,,0.00,749.000000,,2013-03-06 19:11:00,
2013-03-06 12:22:00,44.0,10.0,-100.00,South,177,5.0,9.0,25,0.00,,,0.00,749.000000,,2013-03-06 19:22:00,
2013-03-06 12:32:00,44.0,10.0,-100.00,South,177,5.0,9.0,25,0.00,,,0.00,749.000000,,2013-03-06 19:32:00,
2013-03-06 13:02:00,45.0,11.0,-100.00,SSW,194,5.0,9.0,25,0.00,,,0.00,776.000000,,2013-03-06 20:02:00,
2013-03-06 13:12:00,45.0,11.0,-100.00,SSW,194,5.0,9.0,25,0.00,,,0.00,776.000000,,2013-03-06 20:12:00,
2013-03-06 13:22:00,45.0,11.0,-100.00,SSW,194,5.0,9.0,25,0.00,,,0.00,776.000000,,2013-03-06 20:22:00,
2013-03-06 13:32:00,45.0,11.0,-100.00,SSW,194,5.0,9.0,25,0.00,,,0.00,776.000000,,2013-03-06 20:32:00,
2013-03-06 14:02:00,44.0,12.0,-100.00,South,184,6.0,12.0,27,0.00,,,0.00,732.000000,,2013-03-06 21:02:00,
2013-03-06 14:12:00,44.0,12.0,-100.00,South,184,6.0,12.0,27,0.00,,,0.00,732.000000,,2013-03-06 21:12:00,
2013-03-06 14:22:00,44.0,12.0,-100.00,South,184,6.0,12.0,27,0.00,,,0.00,732.000000,,2013-03-06 21:22:00,
2013-03-06 14:32:00,44.0,12.0,-100.00,South,184,6.0,12.0,27,0.00,,,0.00,732.000000,,2013-03-06 21:32:00,
2013-03-06 15:02:00,44.0,15.0,-100.00,South,190,5.0,10.0,30,0.00,,,0.00,608.000000,,2013-03-06 22:02:00,
2013-03-06 15:11:00,44.0,15.0,-100.00,South,190,5.0,10.0,30,0.00,,,0.00,608.000000,,2013-03-06 22:11:00,
2013-03-06 15:22:00,44.0,15.0,-100.00,South,190,5.0,10.0,30,0.00,,,0.00,608.000000,,2013-03-06 22:22:00,
2013-03-06 15:32:00,44.0,15.0,-100.00,South,190,5.0,10.0,30,0.00,,,0.00,608.000000,,2013-03-06 22:32:00,
2013-03-06 15:52:00,41.0,16.0,-100.00,South,179,6.0,11.0,36,0.00,,,0.00,324.000000,,2013-03-06 22:52:00,
2013-03-06 16:01:00,41.0,16.0,-100.00,South,179,6.0,11.0,36,0.00,,,0.00,324.000000,,2013-03-06 23:01:00,
2013-03-06 16:11:00,41.0,16.0,-100.00,South,179,6.0,11.0,36,0.00,,,0.00,324.000000,,2013-03-06 23:11:00,
2013-03-06 16:21:00,41.0,16.0,-100.00,South,179,6.0,11.0,36,0.00,,,0.00,324.000000,,2013-03-06 23:21:00,
2013-03-06 16:32:00,41.0,16.0,-100.00,South,179,6.0,11.0,36,0.00,,,0.00,324.000000,,2013-03-06 23:32:00,
2013-03-06 17:02:00,40.0,16.0,-100.00,SSE,168,6.0,13.0,37,0.00,,,0.00,148.000000,,2013-03-07 00:02:00,
2013-03-06 17:11:00,40.0,16.0,-100.00,SSE,168,6.0,13.0,37,0.00,,,0.00,148.000000,,2013-03-07 00:11:00,
2013-03-06 17:21:00,40.0,16.0,-100.00,SSE,168,6.0,13.0,37,0.00,,,0.00,148.000000,,2013-03-07 00:21:00,
2013-03-06 17:32:00,40.0,16.0,-100.00,SSE,168,6.0,13.0,37,0.00,,,0.00,148.000000,,2013-03-07 00:32:00,
2013-03-06 18:01:00,38.0,15.0,-100.00,SE,142,7.0,13.0,39,0.00,,,0.00,72.000000,,2013-03-07 01:01:00,
2013-03-06 18:11:00,38.0,15.0,-100.00,SE,142,7.0,13.0,39,0.00,,,0.00,72.000000,,2013-03-07 01:11:00,
2013-03-06 18:21:00,38.0,15.0,-100.00,SE,142,7.0,13.0,39,0.00,,,0.00,72.000000,,2013-03-07 01:21:00,
2013-03-06 18:31:00,38.0,15.0,-100.00,SE,142,7.0,13.0,39,0.00,,,0.00,72.000000,,2013-03-07 01:31:00,
2013-03-06 18:52:00,34.0,16.0,-100.00,SE,144,8.0,14.0,47,0.00,,,0.00,3.000000,,2013-03-07 01:52:00,
2013-03-06 19:01:00,34.0,16.0,-100.00,SE,144,8.0,14.0,47,0.00,,,0.00,3.000000,,2013-03-07 02:01:00,
2013-03-06 19:11:00,34.0,16.0,-100.00,SE,144,8.0,14.0,47,0.00,,,0.00,3.000000,,2013-03-07 02:11:00,
2013-03-06 19:21:00,34.0,16.0,-100.00,SE,144,8.0,14.0,47,0.00,,,0.00,3.000000,,2013-03-07 02:21:00,
2013-03-06 19:32:00,34.0,16.0,-100.00,SE,144,8.0,14.0,47,0.00,,,0.00,3.000000,,2013-03-07 02:32:00,
2013-03-06 20:02:00,36.0,17.0,-100.00,SSE,162,8.0,17.0,46,0.00,,,0.00,0.000000,,2013-03-07 03:02:00,
2013-03-06 20:11:00,36.0,17.0,-100.00,SSE,162,8.0,17.0,46,0.00,,,0.00,0.000000,,2013-03-07 03:11:00,
2013-03-06 20:21:00,36.0,17.0,-100.00,SSE,162,8.0,17.0,46,0.00,,,0.00,0.000000,,2013-03-07 03:21:00,
2013-03-06 20:32:00,36.0,17.0,-100.00,SSE,162,8.0,17.0,46,0.00,,,0.00,0.000000,,2013-03-07 03:32:00,
2013-03-06 21:01:00,36.0,17.0,-100.00,South,171,8.0,19.0,46,0.00,,,0.00,0.000000,,2013-03-07 04:01:00,
2013-03-06 21:11:00,36.0,17.0,-100.00,South,171,8.0,19.0,46,0.00,,,0.00,0.000000,,2013-03-07 04:11:00,
2013-03-06 21:21:00,36.0,17.0,-100.00,South,171,8.0,19.0,46,0.00,,,0.00,0.000000,,2013-03-07 04:21:00,
2013-03-06 21:32:00,36.0,17.0,-100.00,South,171,8.0,19.0,46,0.00,,,0.00,0.000000,,2013-03-07 04:32:00,
2013-03-06 21:52:00,33.0,17.0,-100.00,SSW,195,5.0,15.0,52,0.00,,,0.00,0.000000,,2013-03-07 04:52:00,
2013-03-06 22:02:00,33.0,17.0,-100.00,SSW,195,5.0,15.0,52,0.00,,,0.00,0.000000,,2013-03-07 05:02:00,
2013-03-06 22:12:00,33.0,17.0,-100.00,SSW,195,5.0,15.0,52,0.00,,,0.00,0.000000,,2013-03-07 05:12:00,
2013-03-06 22:22:00,33.0,17.0,-100.00,SSW,195,5.0,15.0,52,0.00,,,0.00,0.000000,,2013-03-07 05:22:00,
2013-03-06 22:32:00,33.0,17.0,-100.00,SSW,195,5.0,15.0,52,0.00,,,0.00,0.000000,,2013-03-07 05:32:00,
2013-03-06 23:01:00,32.0,18.0,-100.00,SSW,192,4.0,10.0,55,0.00,,,0.00,0.000000,,2013-03-07 06:01:00,
2013-03-06 23:11:00,32.0,18.0,-100.00,SSW,192,4.0,10.0,55,0.00,,,0.00,0.000000,,2013-03-07 06:11:00,
2013-03-06 23:21:00,32.0,18.0,-100.00,SSW,192,4.0,10.0,55,0.00,,,0.00,0.000000,,2013-03-07 06:21:00,
2013-03-06 23:32:00,32.0,18.0,-100.00,SSW,192,4.0,10.0,55,0.00,,,0.00,0.000000,,2013-03-07 06:32:00,
2013-03-06 23:52:00,32.0,18.0,-100.00,SSW,194,6.0,12.0,55,0.00,,,0.00,0.000000,,2013-03-07 06:52:00,